Ana Sayfa
METAR-TAF:

METAR-TAF

Havaalanları :

Linköping, İsveç

Enlem: 58-24N, Boylam: 015-41E, yükseklik: 52 m

Güncel hava durumu gözlemi

Rapor saat 18:50 UTC de 30 dakika önce yapıldı.
Rüzgar değişken yönden 2 kt
Sıcaklık 0°C
Nem 74%
Basınç 1003 hPa
Görüş mesafesi 10 km veya daha fazla
1500 m altında bulut yok ve kümülonimbus yok

METAR: ESSL 241850Z VRB02KT CAVOK 00/M04 Q1003 R29/09//95

Saat: 20:20 (19:20 UTC)

Tahmin

Rapor saat 17:30 UTC de 1 saat ve 50 dakika önce yapıldı.
Ayın 24'si saat 18 UTC'den ayın 24'si saat 23 UTC'ye kadar geçerli Tahmin
Rüzgar değişken yönden 2 kt
Görüş mesafesi 10 km veya daha fazla
1500 m altında bulut yok ve kümülonimbus yok

TAF: ESSL 241730Z 2418/2423 VRB02KT CAVOK

4.000'den fazla havaalanı için hava durumu gözlemleri ve tahminleri (METAR ve TAF raporları).

Kullanılabilir istasyonlar harita üzerinde sarı ve kırmızı noktalarla gösterilir.

İstasyonun adını görmek için fareyi noktanın üzerinde gezdirin.

Sonrasında hava gözlem ve tahminlerini görmek için tıklayın.

Haritayı değiştirmek için: yaklaştırmak için siyah artı işaretli yeşil düğmeye ve uzaklaştırmak için de eksi işaretli düğmeye hızla tıklayın; bitişik haritalar için yeşil okları kullanın.


METAR-TAF: